Time;durP1;ratioP1;P1;durP2;ratioP2;P2;SDS_P1;SDS_P2;PMS_P1;PMS_P2;Temp;Humidity;BMP_temperature;BMP_pressure;BME280_temperature;BME280_humidity;BME280_pressure;Samples;Min_cycle;Max_cycle;Signal;HPM_P1;HPM_P2
2022/01/30 00:01:55;;;;;;;9.18;2.70;;;21.30;47.30;;;;;;5025572;28;20094;-70
2022/01/30 00:04:20;;;;;;;10.15;2.58;;;21.40;47.30;;;;;;5027027;28;20451;-70
2022/01/30 00:06:46;;;;;;;6.35;2.35;;;21.30;47.30;;;;;;5027384;28;20069;-71
2022/01/30 00:09:21;;;;;;;10.05;2.80;;;21.40;47.30;;;;;;5024708;28;20042;-71
2022/01/30 00:11:52;;;;;;;9.77;2.72;;;21.30;47.20;;;;;;5028867;28;20574;-71
2022/01/30 00:14:20;;;;;;;9.98;2.67;;;21.30;47.20;;;;;;5026760;28;20052;-71
2022/01/30 00:16:46;;;;;;;7.77;2.27;;;21.40;47.20;;;;;;5026366;28;20099;-70
2022/01/30 00:19:24;;;;;;;9.45;2.45;;;21.40;47.20;;;;;;5011016;28;20061;-71
2022/01/30 00:22:00;;;;;;;11.27;2.47;;;21.40;47.20;;;;;;5025888;28;20138;-71
2022/01/30 00:25:15;;;;;;;11.27;2.20;;;21.40;47.20;;;;;;5014232;28;20339;-70
2022/01/30 00:27:19;;;;;;;10.48;2.75;;;21.40;47.20;;;;;;5021779;28;20115;-71
2022/01/30 00:29:45;;;;;;;13.45;2.85;;;21.30;47.10;;;;;;5024069;28;20088;-71
2022/01/30 00:32:10;;;;;;;9.75;2.22;;;21.40;48.00;;;;;;5027012;28;20037;-70
2022/01/30 00:34:36;;;;;;;7.32;2.13;;;21.30;47.10;;;;;;5026470;28;20463;-70
2022/01/30 00:37:03;;;;;;;7.50;2.13;;;21.30;47.10;;;;;;5026329;28;20044;-71
2022/01/30 00:39:29;;;;;;;9.48;2.33;;;21.30;47.00;;;;;;5025493;28;20037;-71
2022/01/30 00:41:55;;;;;;;11.02;2.45;;;21.40;47.10;;;;;;5026692;28;20095;-70
2022/01/30 00:44:20;;;;;;;9.75;2.47;;;21.30;47.00;;;;;;5026493;28;20140;-71
2022/01/30 00:46:46;;;;;;;9.30;2.30;;;21.30;47.00;;;;;;5026239;28;20057;-70
2022/01/30 00:49:12;;;;;;;9.25;2.38;;;21.30;47.00;;;;;;5028464;28;20056;-71
2022/01/30 00:51:38;;;;;;;10.35;2.72;;;21.30;47.00;;;;;;5007859;28;20099;-71
2022/01/30 00:54:04;;;;;;;11.07;2.50;;;21.30;47.00;;;;;;5023329;28;20156;-71
2022/01/30 00:56:30;;;;;;;8.63;2.38;;;21.30;46.90;;;;;;5026896;28;20171;-71
2022/01/30 00:58:56;;;;;;;7.45;1.90;;;21.30;46.90;;;;;;5027474;28;20177;-71
2022/01/30 01:01:21;;;;;;;7.63;2.10;;;21.40;46.90;;;;;;5026778;28;20434;-71
2022/01/30 01:03:47;;;;;;;10.52;2.53;;;21.30;46.90;;;;;;5028073;28;20733;-70
2022/01/30 01:06:12;;;;;;;7.65;2.45;;;21.30;46.90;;;;;;5024456;28;20068;-71
2022/01/30 01:08:55;;;;;;;10.23;2.35;;;21.40;46.90;;;;;;5009340;28;20053;-72
2022/01/30 01:24:11;;;;;;;7.80;2.30;;;21.30;46.70;;;;;;5025577;28;20450;-70
2022/01/30 01:26:38;;;;;;;7.85;2.03;;;21.30;46.60;;;;;;5025919;28;20046;-71
2022/01/30 01:29:06;;;;;;;8.90;2.28;;;21.30;46.60;;;;;;5022373;28;20041;-71
2022/01/30 01:31:32;;;;;;;9.13;2.42;;;21.30;46.60;;;;;;5003810;28;20519;-71
2022/01/30 01:36:42;;;;;;;8.27;2.22;;;21.30;46.60;;;;;;5026714;28;20045;-71
2022/01/30 01:39:07;;;;;;;7.22;2.17;;;21.30;46.60;;;;;;5024550;28;20050;-71
2022/01/30 01:41:33;;;;;;;9.00;2.42;;;21.30;46.60;;;;;;5025793;28;20052;-72
2022/01/30 01:44:00;;;;;;;7.75;2.10;;;21.30;46.50;;;;;;5025536;28;20053;-71
2022/01/30 01:46:30;;;;;;;9.50;2.40;;;21.30;46.50;;;;;;5024220;28;20454;-71
2022/01/30 01:48:55;;;;;;;10.75;2.28;;;21.30;46.50;;;;;;5026742;28;20038;-71
2022/01/30 01:51:24;;;;;;;8.73;2.67;;;21.30;46.40;;;;;;5023252;28;20060;-71
2022/01/30 01:53:53;;;;;;;8.40;2.20;;;21.30;46.40;;;;;;5024530;28;20048;-71
2022/01/30 01:56:19;;;;;;;7.90;2.00;;;21.30;46.50;;;;;;5023318;28;20510;-70
2022/01/30 01:58:45;;;;;;;8.02;2.20;;;21.30;46.50;;;;;;5026309;28;20049;-71
2022/01/30 02:01:11;;;;;;;9.07;2.10;;;21.30;46.30;;;;;;5022075;28;20052;-71
2022/01/30 02:03:39;;;;;;;9.10;2.47;;;21.30;46.40;;;;;;5027493;28;20049;-70
2022/01/30 02:06:07;;;;;;;9.95;2.28;;;21.30;46.40;;;;;;5024781;28;20046;-70
2022/01/30 02:08:56;;;;;;;11.05;2.67;;;21.30;46.30;;;;;;5026384;28;20056;-71
2022/01/30 02:11:36;;;;;;;;;;;21.30;46.30;;;;;;5025940;28;20042;-71
2022/01/30 02:25:21;;;;;;;8.48;2.33;;;21.20;46.20;;;;;;5023168;28;20084;-70
2022/01/30 02:27:35;;;;;;;8.32;2.13;;;21.30;46.20;;;;;;5023908;28;20404;-71
2022/01/30 02:30:06;;;;;;;7.97;2.33;;;21.30;46.20;;;;;;5023995;28;20064;-70
2022/01/30 02:32:31;;;;;;;8.88;2.20;;;21.30;46.20;;;;;;5024419;28;20045;-70
2022/01/30 02:34:57;;;;;;;9.50;2.17;;;21.20;46.10;;;;;;5007488;28;20041;-71
2022/01/30 02:37:22;;;;;;;7.30;2.13;;;21.30;46.20;;;;;;5008341;28;20042;-71
2022/01/30 02:39:48;;;;;;;8.60;2.35;;;21.30;46.10;;;;;;5022605;28;20238;-71
2022/01/30 02:42:18;;;;;;;8.63;2.40;;;21.30;46.20;;;;;;5026832;28;20073;-71
2022/01/30 02:44:57;;;;;;;6.30;2.10;;;21.30;46.10;;;;;;5022259;28;20058;-71
2022/01/30 02:47:54;;;;;;;6.38;2.20;;;21.30;46.10;;;;;;5026412;28;20035;-70
2022/01/30 02:52:40;;;;;;;7.88;2.00;;;21.30;46.20;;;;;;5022199;28;19925;-70
2022/01/30 02:55:06;;;;;;;10.52;2.15;;;21.30;46.10;;;;;;5006042;28;20594;-71
2022/01/30 02:57:32;;;;;;;8.13;2.10;;;21.30;46.00;;;;;;5025251;28;20133;-70
2022/01/30 02:59:57;;;;;;;8.15;2.22;;;21.30;46.00;;;;;;5023454;28;20483;-71
2022/01/30 03:02:23;;;;;;;10.63;2.00;;;21.30;46.00;;;;;;5024542;28;20050;-70
2022/01/30 03:04:48;;;;;;;9.13;2.00;;;21.30;46.00;;;;;;5024887;28;20048;-71
2022/01/30 03:07:14;;;;;;;6.88;2.15;;;21.30;46.00;;;;;;5022621;28;20077;-71
2022/01/30 03:09:39;;;;;;;9.57;2.50;;;21.30;46.00;;;;;;5023495;28;20049;-70
2022/01/30 03:12:06;;;;;;;11.88;2.35;;;21.30;45.90;;;;;;5027029;28;20477;-71
2022/01/30 03:14:31;;;;;;;10.15;2.33;;;21.30;45.90;;;;;;5026506;28;20056;-71
2022/01/30 03:16:57;;;;;;;10.07;2.28;;;21.30;45.90;;;;;;5028038;28;20835;-70
2022/01/30 03:19:23;;;;;;;9.95;2.15;;;21.30;45.90;;;;;;5011182;28;20053;-70
2022/01/30 03:21:48;;;;;;;10.05;2.13;;;21.30;45.90;;;;;;5028756;28;20148;-71
2022/01/30 03:24:14;;;;;;;11.82;2.95;;;21.30;45.90;;;;;;5028043;28;20076;-71
2022/01/30 03:26:40;;;;;;;11.23;2.58;;;21.30;45.80;;;;;;5029532;28;20048;-70
2022/01/30 03:29:08;;;;;;;10.82;2.90;;;21.30;45.80;;;;;;5029321;28;20067;-71
2022/01/30 03:31:39;;;;;;;9.27;2.38;;;21.30;45.80;;;;;;5026152;28;20050;-71
2022/01/30 03:34:10;;;;;;;7.65;2.40;;;21.30;45.80;;;;;;5029061;28;20100;-71
2022/01/30 03:36:35;;;;;;;7.40;2.33;;;21.30;45.70;;;;;;5025393;28;20084;-71
2022/01/30 03:39:02;;;;;;;10.73;2.65;;;21.30;45.70;;;;;;5030124;28;20477;-70
2022/01/30 03:41:28;;;;;;;9.18;2.45;;;21.30;45.80;;;;;;5024715;28;20045;-70
2022/01/30 03:43:53;;;;;;;8.65;2.30;;;21.30;45.70;;;;;;5028619;28;20561;-71
2022/01/30 03:46:23;;;;;;;8.10;2.33;;;21.30;45.50;;;;;;5021467;28;20053;-70
2022/01/30 03:48:48;;;;;;;11.52;2.30;;;21.30;45.60;;;;;;5028845;28;20086;-72
2022/01/30 03:51:14;;;;;;;10.15;2.47;;;21.30;45.40;;;;;;5025865;28;20050;-71
2022/01/30 03:53:40;;;;;;;8.65;2.20;;;21.30;45.30;;;;;;5024183;28;20560;-71
2022/01/30 03:56:06;;;;;;;9.73;2.58;;;21.30;45.30;;;;;;5027717;28;20120;-72
2022/01/30 03:58:33;;;;;;;9.90;2.30;;;21.30;45.30;;;;;;5026136;28;20431;-71
2022/01/30 04:00:59;;;;;;;9.82;2.03;;;21.30;45.20;;;;;;5025639;28;20049;-70
2022/01/30 04:03:25;;;;;;;10.40;2.63;;;21.30;45.20;;;;;;5025865;28;20044;-72
2022/01/30 04:05:51;;;;;;;11.02;2.60;;;21.30;45.10;;;;;;5035305;28;20464;-71
2022/01/30 04:08:17;;;;;;;10.68;2.53;;;21.30;45.10;;;;;;5026421;28;20043;-72
2022/01/30 04:10:43;;;;;;;10.70;2.55;;;21.30;45.10;;;;;;5028547;28;20041;-71
2022/01/30 04:13:09;;;;;;;11.30;2.60;;;21.30;45.00;;;;;;5025551;28;20041;-72
2022/01/30 04:15:35;;;;;;;9.90;2.65;;;21.30;45.00;;;;;;5027286;28;20053;-72
2022/01/30 04:18:01;;;;;;;8.48;2.80;;;21.40;45.00;;;;;;5025851;28;20039;-71
2022/01/30 04:20:28;;;;;;;9.63;2.60;;;21.40;45.00;;;;;;5027556;28;20038;-71
2022/01/30 04:22:54;;;;;;;13.02;2.42;;;21.40;45.00;;;;;;5026140;28;20044;-71
2022/01/30 04:25:19;;;;;;;10.75;2.97;;;21.30;44.90;;;;;;5023198;28;20049;-72
2022/01/30 04:27:45;;;;;;;9.43;2.85;;;21.40;44.80;;;;;;5026572;28;20081;-71
2022/01/30 04:30:11;;;;;;;14.32;2.92;;;21.40;44.80;;;;;;5027158;28;20045;-73
2022/01/30 04:32:42;;;;;;;14.70;3.00;;;21.40;44.80;;;;;;5023300;28;20053;-71
2022/01/30 04:35:17;;;;;;;12.10;2.78;;;21.30;44.60;;;;;;5026337;28;20069;-70
2022/01/30 04:40:34;;;;;;;10.15;2.42;;;21.40;44.70;;;;;;5025241;28;20055;-70
2022/01/30 04:54:41;;;;;;;15.82;3.47;;;21.30;44.60;;;;;;5022824;28;20045;-70
2022/01/30 04:56:58;;;;;;;11.02;2.58;;;21.30;44.70;;;;;;5024793;28;20811;-70
2022/01/30 04:59:47;;;;;;;11.38;3.00;;;21.30;44.60;;;;;;5027110;28;20049;-70
2022/01/30 05:07:39;;;;;;;12.48;3.10;;;21.40;44.70;;;;;;5024091;28;20084;-71
2022/01/30 05:10:06;;;;;;;14.98;3.10;;;21.30;44.60;;;;;;5026331;28;20037;-70
2022/01/30 05:12:41;;;;;;;8.43;2.60;;;21.40;44.70;;;;;;5024768;28;20053;-71
2022/01/30 05:15:07;;;;;;;11.45;3.05;;;21.40;44.70;;;;;;5025073;28;20087;-70
2022/01/30 05:17:33;;;;;;;12.82;2.90;;;21.30;44.60;;;;;;5026222;28;20542;-70
2022/01/30 05:20:00;;;;;;;12.40;3.05;;;21.40;44.70;;;;;;5024177;28;20037;-70
2022/01/30 05:22:26;;;;;;;9.73;2.58;;;21.40;44.70;;;;;;5008526;28;20039;-70
2022/01/30 05:24:51;;;;;;;10.27;2.72;;;21.30;44.60;;;;;;5023821;28;20601;-70
2022/01/30 05:27:17;;;;;;;13.40;3.25;;;21.40;44.70;;;;;;5026486;28;20595;-70
2022/01/30 05:29:43;;;;;;;10.73;2.67;;;21.40;44.60;;;;;;5025259;28;20476;-70
2022/01/30 05:32:09;;;;;;;14.38;3.38;;;21.30;44.50;;;;;;5024616;28;20095;-70
2022/01/30 05:34:35;;;;;;;13.63;2.90;;;21.40;44.60;;;;;;5027415;28;20055;-70
2022/01/30 05:37:02;;;;;;;13.82;2.85;;;21.40;44.60;;;;;;5024236;28;20587;-71
2022/01/30 05:39:28;;;;;;;11.98;3.28;;;21.40;44.60;;;;;;5009186;28;20072;-70
2022/01/30 05:41:55;;;;;;;13.30;3.17;;;21.40;44.60;;;;;;5025863;28;20547;-70
2022/01/30 05:44:30;;;;;;;12.55;3.00;;;21.40;44.60;;;;;;5025694;28;20096;-69
2022/01/30 05:46:58;;;;;;;12.63;3.20;;;21.40;44.70;;;;;;5026190;28;20049;-70
2022/01/30 05:49:25;;;;;;;11.50;3.00;;;21.40;44.60;;;;;;5025659;28;20104;-70
2022/01/30 05:51:51;;;;;;;15.18;3.13;;;21.40;44.60;;;;;;5026779;28;20088;-70
2022/01/30 05:54:17;;;;;;;12.02;3.25;;;21.40;44.70;;;;;;5023724;28;20045;-70
2022/01/30 05:56:43;;;;;;;15.80;3.33;;;21.30;44.60;;;;;;5024543;28;20048;-70
2022/01/30 05:59:09;;;;;;;13.80;3.25;;;21.30;44.50;;;;;;5024775;28;20497;-70
2022/01/30 06:01:34;;;;;;;10.25;2.70;;;21.40;45.30;;;;;;5024394;28;20104;-70
2022/01/30 06:04:00;;;;;;;12.77;2.70;;;21.30;44.50;;;;;;5024650;28;20041;-69
2022/01/30 06:06:25;;;;;;;14.52;3.47;;;21.40;44.60;;;;;;5008890;28;20552;-71
2022/01/30 06:09:01;;;;;;;12.52;3.28;;;21.40;44.60;;;;;;5025810;28;20512;-69
2022/01/30 06:11:26;;;;;;;11.93;2.90;;;21.40;44.60;;;;;;5021892;28;20038;-70
2022/01/30 06:13:52;;;;;;;15.43;3.00;;;21.40;44.60;;;;;;5018781;28;20672;-70
2022/01/30 06:16:17;;;;;;;13.35;3.22;;;21.40;44.50;;;;;;5022400;28;20096;-71
2022/01/30 06:18:43;;;;;;;16.15;3.35;;;21.40;44.60;;;;;;5020594;28;20060;-70
2022/01/30 06:21:09;;;;;;;12.75;3.85;;;21.40;44.60;;;;;;5022734;28;20049;-70
2022/01/30 06:23:36;;;;;;;15.23;3.47;;;21.40;44.60;;;;;;5025381;28;20045;-72
2022/01/30 06:26:02;;;;;;;12.35;3.17;;;21.40;44.60;;;;;;5023051;28;20057;-71
2022/01/30 06:28:28;;;;;;;12.05;3.53;;;21.40;44.60;;;;;;5023785;28;20505;-71
2022/01/30 06:30:54;;;;;;;11.52;3.00;;;21.40;44.70;;;;;;5023923;28;20051;-71
2022/01/30 06:33:19;;;;;;;11.38;2.97;;;21.40;44.60;;;;;;5024243;28;20045;-70
2022/01/30 06:35:46;;;;;;;15.95;3.35;;;21.40;44.60;;;;;;5025721;28;20046;-71
2022/01/30 06:38:12;;;;;;;11.77;3.13;;;21.40;44.60;;;;;;5020997;28;20037;-70
2022/01/30 06:40:37;;;;;;;15.40;3.50;;;21.40;44.60;;;;;;5020759;28;20050;-71
2022/01/30 06:43:03;;;;;;;15.63;3.42;;;21.50;44.60;;;;;;5023674;28;20096;-70
2022/01/30 06:45:29;;;;;;;11.60;3.00;;;21.40;44.60;;;;;;5023925;28;20417;-68
2022/01/30 06:47:55;;;;;;;12.38;3.15;;;21.40;44.70;;;;;;5025489;28;20083;-72
2022/01/30 06:50:20;;;;;;;11.65;3.47;;;21.40;44.90;;;;;;5023950;28;20140;-73
2022/01/30 06:52:46;;;;;;;11.15;3.10;;;21.40;45.00;;;;;;5028074;28;20048;-72
2022/01/30 06:55:11;;;;;;;14.55;3.17;;;21.40;45.00;;;;;;5006962;28;20064;-71
2022/01/30 06:57:45;;;;;;;14.10;2.92;;;21.40;45.00;;;;;;5027782;28;20042;-70
2022/01/30 07:00:11;;;;;;;14.30;3.83;;;21.40;45.00;;;;;;5026687;28;20041;-68
2022/01/30 07:02:37;;;;;;;11.85;3.05;;;21.40;45.00;;;;;;5021418;28;20049;-73
2022/01/30 07:05:03;;;;;;;14.02;3.55;;;21.50;45.10;;;;;;5028617;28;20507;-69
2022/01/30 07:07:29;;;;;;;13.43;3.25;;;21.40;45.10;;;;;;5025620;28;20053;-68
2022/01/30 07:09:55;;;;;;;13.25;3.63;;;21.40;45.00;;;;;;5025106;28;20588;-68
2022/01/30 07:12:21;;;;;;;10.15;3.10;;;21.40;45.00;;;;;;5027307;28;20041;-71
2022/01/30 07:14:47;;;;;;;14.13;3.50;;;21.40;45.00;;;;;;5041886;28;20889;-71
2022/01/30 07:17:12;;;;;;;11.75;3.15;;;21.50;45.00;;;;;;5027365;28;20650;-71
2022/01/30 07:19:38;;;;;;;13.43;3.75;;;21.50;45.10;;;;;;5028908;28;20152;-72
2022/01/30 07:22:05;;;;;;;13.52;3.00;;;21.40;45.10;;;;;;5027431;28;20037;-71
2022/01/30 07:24:31;;;;;;;13.48;3.40;;;21.50;45.10;;;;;;5029429;28;20037;-72
2022/01/30 07:26:56;;;;;;;11.35;3.33;;;21.50;45.10;;;;;;5025398;28;20521;-70
2022/01/30 13:29:57;;;;;;;23.10;4.80;;;21.80;41.50;;;;;;5109879;27;20361;-74
2022/01/30 13:32:25;;;;;;;18.52;4.00;;;21.80;42.20;;;;;;5117496;27;20063;-75
2022/01/30 13:34:53;;;;;;;20.77;4.65;;;21.80;41.90;;;;;;5091648;28;20571;-74
2022/01/30 13:37:20;;;;;;;23.20;4.97;;;21.70;41.60;;;;;;5094729;28;20036;-71
2022/01/30 13:40:08;;;;;;;20.45;4.78;;;21.70;41.40;;;;;;5090764;28;20042;-69
2022/01/30 13:43:13;;;;;;;23.75;5.05;;;21.60;40.40;;;;;;5090463;28;20487;-70
2022/01/30 13:48:01;;;;;;;21.60;4.50;;;21.50;40.80;;;;;;5123068;27;20114;-69
2022/01/30 13:50:36;;;;;;;25.15;4.90;;;21.40;40.80;;;;;;5072167;28;20532;-71
2022/01/30 13:53:31;;;;;;;22.17;4.63;;;21.40;40.70;;;;;;5094344;28;20051;-71
2022/01/30 13:56:03;;;;;;;16.67;3.88;;;21.40;40.40;;;;;;5078005;28;20152;-75
2022/01/30 13:58:41;;;;;;;18.85;4.70;;;21.30;40.90;;;;;;5090457;28;20048;-72
2022/01/30 14:01:10;;;;;;;17.60;4.30;;;21.40;40.80;;;;;;5107299;28;20079;-73
2022/01/30 14:03:37;;;;;;;19.83;4.07;;;21.40;41.10;;;;;;5085742;28;20084;-70
2022/01/30 14:06:15;;;;;;;17.42;4.13;;;21.40;41.40;;;;;;5091438;28;20039;-71
2022/01/30 14:09:00;;;;;;;20.90;4.50;;;21.30;41.70;;;;;;5089576;28;20032;-72
2022/01/30 14:11:35;;;;;;;21.35;3.95;;;21.30;42.00;;;;;;5092644;28;20519;-70
2022/01/30 14:14:25;;;;;;;22.23;4.28;;;21.30;42.10;;;;;;5092578;28;20040;-72
2022/01/30 14:16:58;;;;;;;18.65;4.00;;;21.40;42.10;;;;;;5088133;28;20036;-72
2022/01/30 14:19:27;;;;;;;22.40;4.63;;;21.40;42.20;;;;;;5091099;28;20039;-71
2022/01/30 14:21:57;;;;;;;21.17;4.35;;;21.40;42.20;;;;;;5127189;27;20044;-71
2022/01/30 14:24:25;;;;;;;18.55;4.30;;;21.40;42.20;;;;;;5088695;28;20502;-71
2022/01/30 14:27:10;;;;;;;;;;;21.40;42.30;;;;;;5087279;28;20050;-71
2022/01/30 14:29:38;;;;;;;17.10;4.05;;;21.30;42.40;;;;;;5089826;28;19935;-70
2022/01/30 14:32:12;;;;;;;21.00;4.78;;;21.30;42.60;;;;;;5075691;28;20044;-69
2022/01/30 14:34:38;;;;;;;18.02;4.22;;;21.30;42.80;;;;;;5094482;28;20047;-69
2022/01/30 14:37:05;;;;;;;31.33;5.20;;;21.30;43.00;;;;;;5121663;27;20048;-70
2022/01/30 14:39:33;;;;;;;20.63;3.58;;;21.30;43.30;;;;;;5083707;28;20086;-69
2022/01/30 14:42:01;;;;;;;25.25;4.57;;;21.30;43.70;;;;;;5080188;28;20064;-71
2022/01/30 14:44:27;;;;;;;19.20;3.63;;;21.30;44.00;;;;;;5073736;28;20075;-70
2022/01/30 14:46:52;;;;;;;20.90;4.78;;;21.30;44.20;;;;;;5078531;28;20071;-71
2022/01/30 14:49:18;;;;;;;19.23;4.38;;;21.30;44.50;;;;;;5073834;28;20036;-68
2022/01/30 14:51:45;;;;;;;18.50;4.05;;;21.30;44.70;;;;;;5113244;27;20052;-71
2022/01/30 14:54:11;;;;;;;17.77;3.95;;;21.30;45.00;;;;;;5077004;28;20665;-71
2022/01/30 14:56:37;;;;;;;21.15;3.88;;;21.30;45.30;;;;;;5075454;28;20072;-69
2022/01/30 14:59:03;;;;;;;15.50;3.53;;;21.30;45.50;;;;;;5079395;28;20038;-69
2022/01/30 15:01:29;;;;;;;19.77;3.88;;;21.20;45.60;;;;;;5076583;28;20562;-70
2022/01/30 15:03:55;;;;;;;18.45;3.80;;;21.20;45.90;;;;;;5077427;28;20040;-71
2022/01/30 15:06:22;;;;;;;16.42;4.40;;;21.20;46.20;;;;;;5074416;28;20085;-69
2022/01/30 15:08:48;;;;;;;15.35;3.50;;;21.20;46.40;;;;;;5092970;28;20075;-69
2022/01/30 15:11:15;;;;;;;16.17;3.95;;;21.30;46.70;;;;;;5075107;28;20147;-69
2022/01/30 15:13:41;;;;;;;17.58;4.25;;;21.20;46.90;;;;;;5078267;28;20040;-70
2022/01/30 15:16:14;;;;;;;14.43;3.38;;;21.20;47.10;;;;;;5069927;28;20055;-73
2022/01/30 15:18:42;;;;;;;15.60;3.88;;;21.20;47.30;;;;;;5073108;28;20044;-73
2022/01/30 15:21:17;;;;;;;22.30;4.25;;;21.20;47.50;;;;;;5109945;27;20131;-72
2022/01/30 15:23:43;;;;;;;21.70;3.53;;;21.20;47.80;;;;;;5071302;28;20036;-73
2022/01/30 15:26:08;;;;;;;19.30;3.78;;;21.20;47.90;;;;;;5075383;28;20594;-74
2022/01/30 15:28:35;;;;;;;17.63;3.83;;;21.20;48.00;;;;;;5076255;28;20052;-70
2022/01/30 15:31:01;;;;;;;18.55;4.07;;;21.20;48.90;;;;;;5076209;28;20079;-71
2022/01/30 15:33:26;;;;;;;14.88;3.67;;;21.20;48.30;;;;;;5075400;28;20035;-70
2022/01/30 15:35:52;;;;;;;20.92;3.45;;;21.10;48.30;;;;;;5076672;28;20044;-70
2022/01/30 15:38:19;;;;;;;18.67;3.60;;;21.10;48.60;;;;;;5077282;28;20040;-71
2022/01/30 15:40:46;;;;;;;15.88;3.08;;;21.10;48.80;;;;;;5108543;27;20538;-69
2022/01/30 15:43:12;;;;;;;22.10;4.30;;;21.10;49.10;;;;;;5075564;28;20051;-70
2022/01/30 15:51:07;;;;;;;18.70;3.78;;;21.10;49.60;;;;;;5074283;28;20051;-70
2022/01/30 15:53:33;;;;;;;14.35;3.33;;;21.10;49.80;;;;;;5086199;28;20043;-70
2022/01/30 15:55:58;;;;;;;17.67;3.85;;;21.10;49.90;;;;;;5080581;28;20047;-71
2022/01/30 15:58:28;;;;;;;18.35;4.47;;;21.10;50.10;;;;;;5072767;28;20045;-70
2022/01/30 16:00:54;;;;;;;15.95;4.40;;;21.10;50.40;;;;;;5075886;28;20120;-71
2022/01/30 16:03:20;;;;;;;17.27;3.65;;;21.20;50.70;;;;;;5076218;28;20119;-70
2022/01/30 16:05:47;;;;;;;15.80;4.15;;;21.20;51.10;;;;;;5075654;28;20044;-72
2022/01/30 16:08:14;;;;;;;17.95;3.63;;;21.20;51.10;;;;;;5074963;28;20048;-71
2022/01/30 16:10:41;;;;;;;18.85;3.72;;;21.20;52.10;;;;;;5059800;28;20485;-71
2022/01/30 16:15:51;;;;;;;18.05;4.18;;;21.20;51.50;;;;;;5074340;28;20040;-72
2022/01/30 16:18:17;;;;;;;22.77;4.47;;;21.20;51.60;;;;;;5075150;28;20181;-69
2022/01/30 16:20:44;;;;;;;21.38;5.03;;;21.20;51.80;;;;;;5074238;28;20080;-70
2022/01/30 16:23:11;;;;;;;24.98;3.75;;;21.20;51.90;;;;;;5070682;28;20028;-71
2022/01/30 16:25:40;;;;;;;17.58;3.80;;;21.20;52.10;;;;;;5073789;28;20039;-72
2022/01/30 16:28:05;;;;;;;;;;;21.20;52.30;;;;;;5103211;27;20084;-71
2022/01/30 16:30:31;;;;;;;20.98;3.88;;;21.10;52.30;;;;;;5076422;28;19959;-71
2022/01/30 16:32:57;;;;;;;18.88;3.85;;;21.10;52.00;;;;;;5076414;28;20095;-68
2022/01/30 16:35:23;;;;;;;17.98;4.05;;;21.10;52.30;;;;;;5069079;28;20045;-73
2022/01/30 16:37:49;;;;;;;15.35;3.65;;;21.10;52.70;;;;;;5075345;28;20462;-75
2022/01/30 16:40:15;;;;;;;16.05;3.58;;;21.10;52.80;;;;;;5071608;28;20176;-71
2022/01/30 16:42:41;;;;;;;19.70;3.45;;;21.10;52.80;;;;;;5073746;28;20040;-71
2022/01/30 16:45:31;;;;;;;21.90;4.18;;;21.10;52.90;;;;;;5074361;28;20563;-72
2022/01/30 16:47:59;;;;;;;14.68;3.55;;;21.10;53.00;;;;;;5091124;28;20135;-72
2022/01/30 16:50:28;;;;;;;17.55;3.78;;;21.10;53.20;;;;;;5070992;28;20048;-73
2022/01/30 16:52:54;;;;;;;18.08;3.75;;;21.10;53.30;;;;;;5072623;28;20124;-72
2022/01/30 16:55:20;;;;;;;16.17;3.47;;;21.10;53.40;;;;;;5088173;28;21011;-71
2022/01/30 16:57:46;;;;;;;18.88;3.47;;;21.10;53.50;;;;;;5076372;28;20061;-71
2022/01/30 17:00:13;;;;;;;16.25;3.85;;;21.00;53.60;;;;;;5090292;28;20409;-69
2022/01/30 17:02:39;;;;;;;19.20;3.72;;;21.10;53.60;;;;;;5077959;28;20040;-68
2022/01/30 17:05:05;;;;;;;23.42;4.85;;;21.10;53.60;;;;;;5095797;28;20053;-67
2022/01/30 17:07:32;;;;;;;17.13;4.72;;;21.10;53.40;;;;;;5069998;28;20688;-69
2022/01/30 17:09:58;;;;;;;18.98;4.38;;;21.00;53.10;;;;;;5073474;28;20151;-70
2022/01/30 17:12:32;;;;;;;22.48;4.43;;;21.00;53.00;;;;;;5077262;28;20045;-69
2022/01/30 17:15:00;;;;;;;21.20;4.97;;;21.00;52.80;;;;;;5078277;28;20036;-69
2022/01/30 17:17:26;;;;;;;20.00;4.07;;;21.00;52.60;;;;;;5075458;28;20052;-70
2022/01/30 17:19:53;;;;;;;18.75;4.03;;;21.00;52.30;;;;;;5075006;28;20047;-71
2022/01/30 17:22:19;;;;;;;16.17;4.03;;;21.00;52.20;;;;;;5077815;28;20036;-72
2022/01/30 17:24:47;;;;;;;17.40;4.10;;;21.00;52.10;;;;;;5107855;27;20098;-72
2022/01/30 17:27:13;;;;;;;24.38;4.03;;;20.90;52.10;;;;;;5071698;28;20032;-70
2022/01/30 17:29:39;;;;;;;24.38;4.32;;;20.90;52.00;;;;;;5071063;28;20637;-73
2022/01/30 17:32:05;;;;;;;19.60;4.30;;;20.90;52.00;;;;;;5073865;28;20118;-75
2022/01/30 17:34:32;;;;;;;19.33;4.88;;;20.90;51.90;;;;;;5072519;28;20036;-73
2022/01/30 17:36:57;;;;;;;19.58;4.55;;;20.90;51.90;;;;;;5101958;28;20044;-74
2022/01/30 17:39:23;;;;;;;22.08;4.50;;;20.90;51.50;;;;;;5109639;28;20048;-74
2022/01/30 17:41:48;;;;;;;21.63;4.80;;;20.80;51.10;;;;;;5073286;28;20063;-75
2022/01/30 17:44:14;;;;;;;20.75;4.22;;;20.80;50.80;;;;;;5074867;28;20051;-75
2022/01/30 17:46:40;;;;;;;14.48;3.92;;;20.80;50.50;;;;;;5072693;28;20495;-74
2022/01/30 17:49:06;;;;;;;25.65;4.10;;;20.70;50.20;;;;;;5073452;28;20047;-74
2022/01/30 17:51:32;;;;;;;16.75;4.15;;;20.70;50.00;;;;;;5071188;28;20040;-75
2022/01/30 17:53:57;;;;;;;20.20;4.43;;;20.60;49.70;;;;;;5108808;28;20064;-73
2022/01/30 17:56:25;;;;;;;20.30;4.90;;;20.70;49.60;;;;;;5074229;28;20044;-75
2022/01/30 17:58:52;;;;;;;17.40;4.53;;;20.60;49.30;;;;;;5070405;28;20113;-71
2022/01/30 18:01:18;;;;;;;20.83;3.78;;;20.60;49.30;;;;;;5081073;28;20039;-77
2022/01/30 18:03:44;;;;;;;21.15;3.92;;;20.60;49.20;;;;;;5077809;28;20083;-73
2022/01/30 18:06:15;;;;;;;22.60;4.70;;;20.60;49.10;;;;;;5105055;28;20055;-71
2022/01/30 18:08:43;;;;;;;18.40;3.90;;;20.60;48.70;;;;;;5107422;28;20143;-75
2022/01/30 18:11:08;;;;;;;19.92;4.35;;;20.60;48.50;;;;;;5072369;28;20429;-75
2022/01/30 18:13:34;;;;;;;15.77;4.57;;;20.60;48.40;;;;;;5070384;28;20040;-74
2022/01/30 18:16:00;;;;;;;19.17;4.13;;;20.50;48.20;;;;;;5073740;28;20479;-76
2022/01/30 18:18:26;;;;;;;15.95;3.80;;;20.50;48.10;;;;;;5064093;28;20043;-74
2022/01/30 18:20:51;;;;;;;24.42;4.53;;;20.50;48.10;;;;;;5076552;28;20415;-75
2022/01/30 18:23:17;;;;;;;17.40;3.90;;;20.60;48.10;;;;;;5072005;28;20048;-76
2022/01/30 18:25:43;;;;;;;16.33;3.85;;;20.50;48.10;;;;;;5090807;28;20060;-75
2022/01/30 18:28:12;;;;;;;21.67;4.05;;;20.50;48.10;;;;;;5077664;28;20655;-75
2022/01/30 18:30:37;;;;;;;15.70;4.18;;;20.60;48.20;;;;;;5056264;28;20047;-74
2022/01/30 18:33:04;;;;;;;19.30;4.15;;;20.60;48.20;;;;;;5073219;28;20060;-75
2022/01/30 18:35:35;;;;;;;16.15;4.03;;;20.50;48.20;;;;;;5057839;28;20040;-74
2022/01/30 18:38:02;;;;;;;19.88;4.30;;;20.60;48.20;;;;;;5074081;28;20142;-75
2022/01/30 18:40:47;;;;;;;15.85;4.00;;;20.50;48.20;;;;;;5089983;28;20044;-75
2022/01/30 18:43:13;;;;;;;18.50;4.80;;;20.50;48.20;;;;;;5092692;28;20048;-75
2022/01/30 18:45:38;;;;;;;19.48;3.97;;;20.50;48.20;;;;;;5071909;28;20487;-74
2022/01/30 18:48:04;;;;;;;15.90;4.00;;;20.50;48.30;;;;;;5092833;28;20044;-75
2022/01/30 18:50:30;;;;;;;20.27;4.53;;;20.50;48.40;;;;;;5078509;28;20639;-77
2022/01/30 18:52:57;;;;;;;18.55;3.92;;;20.50;48.70;;;;;;5078584;28;20040;-73
2022/01/30 18:55:24;;;;;;;18.05;4.38;;;20.60;49.00;;;;;;5060368;28;20040;-88
2022/01/30 18:57:51;;;;;;;12.10;3.47;;;20.60;49.80;;;;;;5110702;27;20135;-83
2022/01/30 19:00:17;;;;;;;18.67;4.35;;;20.60;50.30;;;;;;5053996;28;20147;-82
2022/01/30 19:02:46;;;;;;;21.77;4.22;;;20.60;50.60;;;;;;5071329;28;20047;-93
2022/01/30 19:05:12;;;;;;;18.77;4.22;;;20.60;50.80;;;;;;5085846;28;20048;-92
2022/01/30 19:07:38;;;;;;;15.32;3.88;;;20.60;50.90;;;;;;5089044;28;20044;-83
2022/01/30 19:10:05;;;;;;;12.10;3.65;;;20.60;51.00;;;;;;5076667;28;20073;-77
2022/01/30 19:12:31;;;;;;;16.20;4.00;;;20.60;50.90;;;;;;5075970;28;20037;-74
2022/01/30 19:14:57;;;;;;;15.55;3.65;;;20.60;50.90;;;;;;5070634;28;20067;-77
2022/01/30 19:17:24;;;;;;;16.30;4.10;;;20.60;51.60;;;;;;5105315;27;20051;-81
2022/01/30 19:19:49;;;;;;;17.45;4.32;;;20.60;50.70;;;;;;5092614;28;20122;-80
2022/01/30 19:22:15;;;;;;;12.77;3.70;;;20.70;50.70;;;;;;5108123;27;20040;-76
2022/01/30 19:24:41;;;;;;;16.45;4.15;;;20.70;50.70;;;;;;5056671;28;20444;-78
2022/01/30 19:27:10;;;;;;;16.95;4.07;;;20.70;50.60;;;;;;5074984;28;20028;-78
2022/01/30 19:29:37;;;;;;;20.67;3.83;;;20.70;50.60;;;;;;5073551;28;20547;-85
2022/01/30 19:32:03;;;;;;;17.58;3.40;;;20.70;50.50;;;;;;5110822;27;20500;-77
2022/01/30 19:34:29;;;;;;;12.73;3.35;;;20.70;50.40;;;;;;5078209;28;20558;-82
2022/01/30 19:36:55;;;;;;;11.02;3.22;;;20.80;50.50;;;;;;5074174;28;20075;-78
2022/01/30 19:39:20;;;;;;;19.75;3.60;;;20.80;50.30;;;;;;5070944;28;20058;-80
2022/01/30 19:41:46;;;;;;;15.63;3.47;;;20.80;50.20;;;;;;5074746;28;20151;-84
2022/01/30 19:44:12;;;;;;;11.82;3.67;;;20.80;50.20;;;;;;5071384;28;20040;-74